createdAt,value
2023-04-12T00:00:19.977Z,7.02
2023-04-12T00:03:54.612Z,7.01
2023-04-12T00:06:36.996Z,7.01
2023-04-12T00:09:05.876Z,7.00
2023-04-12T00:11:48.277Z,7.02
2023-04-12T00:14:57.530Z,7.04
2023-04-12T00:17:58.585Z,7.07
2023-04-12T00:21:07.093Z,7.10
2023-04-12T00:23:56.891Z,7.10
2023-04-12T00:26:55.058Z,7.11
2023-04-12T00:29:52.416Z,7.10
2023-04-12T00:32:58.621Z,7.08
2023-04-12T00:35:47.042Z,7.07
2023-04-12T00:38:38.341Z,7.04
2023-04-12T00:41:27.011Z,7.01
2023-04-12T00:44:37.518Z,6.99
2023-04-12T00:47:45.862Z,6.96
2023-04-12T00:50:54.292Z,6.95
2023-04-12T00:53:42.555Z,6.94
2023-04-12T00:56:12.353Z,6.93
2023-04-12T00:59:09.779Z,6.90
2023-04-12T01:02:02.813Z,6.85
2023-04-12T01:04:44.441Z,6.79
2023-04-12T01:07:15.804Z,6.72
2023-04-12T01:10:04.144Z,6.67
2023-04-12T01:13:05.580Z,6.60
2023-04-12T01:15:48.441Z,6.54
2023-04-12T01:18:56.944Z,6.51
2023-04-12T01:21:31.677Z,6.46
2023-04-12T01:24:38.572Z,6.42
2023-04-12T01:27:13.688Z,6.37
2023-04-12T01:30:40.230Z,6.32
2023-04-12T01:33:15.569Z,6.24
2023-04-12T01:35:49.254Z,6.20
2023-04-12T01:38:19.909Z,6.17
2023-04-12T01:40:58.332Z,6.13
2023-04-12T01:43:33.467Z,6.08
2023-04-12T01:46:13.646Z,6.06
2023-04-12T01:49:03.268Z,6.03
2023-04-12T01:52:10.562Z,6.01
2023-04-12T01:55:00.457Z,5.99
2023-04-12T01:57:32.225Z,5.97
2023-04-12T02:00:07.942Z,5.95
2023-04-12T02:02:49.826Z,5.93
2023-04-12T02:05:59.118Z,5.91
2023-04-12T02:08:31.380Z,5.87
2023-04-12T02:11:16.456Z,5.84
2023-04-12T02:13:54.511Z,5.80
2023-04-12T02:16:25.604Z,5.78
2023-04-12T02:19:03.834Z,5.75
2023-04-12T02:21:46.206Z,5.74
2023-04-12T02:24:19.350Z,5.72
2023-04-12T02:26:55.627Z,5.69
2023-04-12T02:29:27.319Z,5.65
2023-04-12T02:31:55.581Z,5.62
2023-04-12T02:38:26.042Z,5.50
2023-04-12T02:40:56.467Z,5.45
2023-04-12T02:44:04.925Z,5.41
2023-04-12T02:46:37.166Z,5.37
2023-04-12T02:49:05.168Z,5.35
2023-04-12T02:51:33.320Z,5.34
2023-04-12T02:54:35.082Z,5.33
2023-04-12T02:57:06.857Z,5.34
2023-04-12T03:00:01.358Z,5.36
2023-04-12T03:03:02.862Z,5.39
2023-04-12T03:05:47.467Z,5.40
2023-04-12T03:08:19.912Z,5.41
2023-04-12T03:10:47.998Z,5.42
2023-04-12T03:20:49.546Z,5.42
2023-04-12T03:23:17.636Z,5.40
2023-04-12T03:25:50.916Z,5.39
2023-04-12T03:30:04.735Z,5.38
2023-04-12T03:32:11.102Z,5.36
2023-04-12T03:34:48.431Z,5.33
2023-04-12T03:37:22.707Z,5.30
2023-04-12T03:39:51.385Z,5.27
2023-04-12T03:42:32.280Z,5.23
2023-04-12T03:45:08.292Z,5.20
2023-04-12T03:47:37.332Z,5.16
2023-04-12T03:50:11.165Z,5.13
2023-04-12T03:53:01.472Z,5.11
2023-04-12T03:55:38.061Z,5.07
2023-04-12T03:58:09.198Z,5.04
2023-04-12T04:00:38.073Z,5.01
2023-04-12T04:03:06.581Z,4.98
2023-04-12T04:05:44.261Z,4.97
2023-04-12T04:08:13.646Z,4.95
2023-04-12T04:10:43.407Z,4.92
2023-04-12T04:13:11.630Z,4.89
2023-04-12T04:16:18.938Z,4.84
2023-04-12T04:18:46.972Z,4.80
2023-04-12T04:21:45.986Z,4.77
2023-04-12T04:24:37.466Z,4.74
2023-04-12T04:27:27.320Z,4.71
2023-04-12T04:30:22.963Z,4.69
2023-04-12T04:32:53.793Z,4.66
2023-04-12T04:35:27.465Z,4.62
2023-04-12T04:37:55.843Z,4.58
2023-04-12T04:40:25.054Z,4.56
2023-04-12T04:42:56.067Z,4.53
2023-04-12T04:45:28.148Z,4.49
2023-04-12T04:48:00.284Z,4.45
2023-04-12T04:50:28.768Z,4.45
2023-04-12T04:53:12.523Z,4.43
2023-04-12T04:56:05.907Z,4.39
2023-04-12T04:58:33.793Z,4.35
2023-04-12T05:01:03.647Z,4.31
2023-04-12T05:03:41.281Z,4.29
2023-04-12T05:06:09.361Z,4.28
2023-04-12T05:08:37.438Z,4.26
2023-04-12T05:11:05.489Z,4.25
2023-04-12T05:13:53.840Z,4.25
2023-04-12T05:16:21.696Z,4.25
2023-04-12T05:18:49.803Z,4.24
2023-04-12T05:21:17.942Z,4.26
2023-04-12T05:23:46.890Z,4.29
2023-04-12T05:26:17.426Z,4.33
2023-04-12T05:28:45.355Z,4.39
2023-04-12T05:31:13.491Z,4.45
2023-04-12T05:34:06.675Z,4.55
2023-04-12T05:37:00.530Z,4.64
2023-04-12T05:39:31.243Z,4.73
2023-04-12T05:41:59.236Z,4.80
2023-04-12T05:44:28.708Z,4.86
2023-04-12T05:46:56.541Z,4.94
2023-04-12T05:49:24.706Z,5.02
2023-04-12T05:51:52.597Z,5.12
2023-04-12T05:54:21.425Z,5.18
2023-04-12T05:56:49.305Z,5.21
2023-04-12T05:59:18.792Z,5.23
2023-04-12T06:01:46.786Z,5.26
2023-04-12T06:04:15.310Z,5.34
2023-04-12T06:06:43.839Z,5.84
2023-04-12T06:09:12.967Z,7.01
2023-04-12T06:11:43.941Z,8.15
2023-04-12T06:14:12.035Z,8.90
2023-04-12T06:16:41.857Z,9.62
2023-04-12T06:19:11.327Z,10.51
2023-04-12T06:21:39.165Z,10.89
2023-04-12T06:24:07.267Z,10.82
2023-04-12T06:26:39.634Z,11.36
2023-04-12T06:29:08.196Z,12.16
2023-04-12T06:32:01.676Z,12.00
2023-04-12T06:34:29.589Z,11.44
2023-04-12T06:36:57.738Z,10.67
2023-04-12T06:39:25.838Z,10.11
2023-04-12T06:41:53.859Z,9.59
2023-04-12T06:44:21.707Z,9.12
2023-04-12T06:46:49.564Z,8.69
2023-04-12T06:49:17.850Z,8.35
2023-04-12T06:51:46.453Z,8.49
2023-04-12T06:54:14.388Z,9.27
2023-04-12T06:56:42.343Z,10.28
2023-04-12T06:59:10.667Z,11.10
2023-04-12T07:02:05.003Z,11.83
2023-04-12T07:04:32.947Z,12.53
2023-04-12T07:07:01.271Z,13.04
2023-04-12T07:09:33.390Z,13.56
2023-04-12T07:12:02.538Z,13.97
2023-04-12T07:17:17.723Z,14.48
2023-04-12T07:19:46.033Z,14.52
2023-04-12T07:22:14.304Z,14.57
2023-04-12T07:24:42.366Z,14.59
2023-04-12T07:27:11.317Z,14.52
2023-04-12T07:29:39.441Z,14.47
2023-04-12T07:32:08.397Z,14.61
2023-04-12T07:34:37.052Z,14.60
2023-04-12T07:37:05.538Z,14.71
2023-04-12T07:39:35.278Z,14.86
2023-04-12T07:42:03.474Z,14.99
2023-04-12T07:44:31.761Z,14.95
2023-04-12T07:46:59.638Z,14.57
2023-04-12T07:49:27.949Z,13.89
2023-04-12T07:51:56.438Z,13.27
2023-04-12T07:54:29.373Z,12.76
2023-04-12T07:56:58.775Z,12.20
2023-04-12T07:59:26.762Z,11.78
2023-04-12T08:01:55.382Z,11.52
2023-04-12T08:04:24.652Z,11.26
2023-04-12T08:06:52.820Z,11.04
2023-04-12T08:09:20.945Z,10.89
2023-04-12T08:11:48.730Z,10.83
2023-04-12T08:14:16.680Z,10.88
2023-04-12T08:16:46.196Z,10.90
2023-04-12T08:19:14.660Z,10.90
2023-04-12T08:21:44.574Z,10.90
2023-04-12T08:24:13.295Z,10.89
2023-04-12T08:26:42.878Z,10.92
2023-04-12T08:29:10.828Z,11.01
2023-04-12T08:31:48.042Z,11.04
2023-04-12T08:34:16.183Z,10.90
2023-04-12T08:36:44.011Z,10.85
2023-04-12T08:39:11.904Z,10.88
2023-04-12T08:41:42.742Z,10.77
2023-04-12T08:44:11.920Z,10.71
2023-04-12T08:46:39.780Z,10.72
2023-04-12T08:49:07.935Z,10.79
2023-04-12T08:51:42.401Z,10.84
2023-04-12T08:54:10.422Z,10.94
2023-04-12T08:56:38.416Z,10.98
2023-04-12T08:59:06.588Z,11.03
2023-04-12T09:01:45.121Z,10.97
2023-04-12T09:04:13.328Z,11.11
2023-04-12T09:06:42.414Z,11.16
2023-04-12T09:09:11.589Z,11.17
2023-04-12T09:11:48.461Z,11.12
2023-04-12T09:14:21.706Z,10.90
2023-04-12T09:16:50.241Z,10.63
2023-04-12T09:19:31.206Z,10.46
2023-04-12T09:21:59.792Z,10.36
2023-04-12T09:24:28.446Z,10.30
2023-04-12T09:27:06.449Z,10.32
2023-04-12T09:29:37.354Z,10.38
2023-04-12T09:32:06.890Z,10.51
2023-04-12T09:34:36.120Z,10.57
2023-04-12T09:37:14.858Z,10.71
2023-04-12T09:39:45.772Z,10.86
2023-04-12T09:42:32.472Z,10.96
2023-04-12T09:45:22.427Z,10.99
2023-04-12T09:47:50.445Z,10.90
2023-04-12T09:50:23.233Z,10.93
2023-04-12T09:52:51.613Z,10.90
2023-04-12T09:55:21.277Z,10.73
2023-04-12T09:57:51.337Z,10.63
2023-04-12T10:00:20.364Z,10.70
2023-04-12T10:02:51.843Z,10.84
2023-04-12T10:05:22.040Z,10.97
2023-04-12T10:07:54.960Z,11.20
2023-04-12T10:10:23.465Z,11.39
2023-04-12T10:12:51.775Z,11.62
2023-04-12T10:15:21.980Z,11.83
2023-04-12T10:17:54.117Z,11.99
2023-04-12T10:20:24.862Z,12.14
2023-04-12T10:22:54.324Z,12.05
2023-04-12T10:25:23.906Z,11.89
2023-04-12T10:27:52.184Z,11.82
2023-04-12T10:30:30.115Z,11.89
2023-04-12T10:33:04.410Z,11.87
2023-04-12T10:35:51.909Z,11.81
2023-04-12T10:38:20.489Z,11.84
2023-04-12T10:41:07.725Z,11.80
2023-04-12T10:44:00.880Z,11.92
2023-04-12T10:46:38.935Z,12.03
2023-04-12T10:49:08.596Z,12.13
2023-04-12T10:51:41.115Z,12.22
2023-04-12T10:54:10.857Z,12.39
2023-04-12T10:56:39.519Z,12.58
2023-04-12T10:59:08.650Z,12.72
2023-04-12T11:01:43.196Z,12.93
2023-04-12T11:04:15.162Z,13.16
2023-04-12T11:07:13.101Z,13.34
2023-04-12T11:09:44.659Z,13.58
2023-04-12T11:12:16.343Z,13.64
2023-04-12T11:15:06.853Z,13.70
2023-04-12T11:17:37.122Z,13.77
2023-04-12T11:20:10.697Z,13.90
2023-04-12T11:22:40.214Z,14.12
2023-04-12T11:25:08.411Z,14.23
2023-04-12T11:27:38.236Z,14.13
2023-04-12T11:30:34.071Z,14.03
2023-04-12T11:33:01.964Z,14.03
2023-04-12T11:35:31.583Z,14.14
2023-04-12T11:38:09.364Z,14.26
2023-04-12T11:40:37.359Z,14.21
2023-04-12T11:43:06.192Z,14.15
2023-04-12T11:45:36.725Z,14.30
2023-04-12T11:48:08.739Z,14.30
2023-04-12T11:50:39.787Z,14.29
2023-04-12T11:53:14.110Z,14.17
2023-04-12T11:55:54.233Z,13.98
2023-04-12T11:58:31.470Z,13.88
2023-04-12T12:01:00.187Z,13.90
2023-04-12T12:03:28.980Z,14.13
2023-04-12T12:05:57.631Z,14.46
2023-04-12T12:08:26.113Z,14.70
2023-04-12T12:11:07.033Z,14.67
2023-04-12T12:13:53.150Z,14.71
2023-04-12T12:16:25.750Z,14.63
2023-04-12T12:18:54.184Z,14.52
2023-04-12T12:21:22.350Z,14.43
2023-04-12T12:23:50.390Z,14.35
2023-04-12T12:26:22.619Z,14.37
2023-04-12T12:28:51.969Z,14.41
2023-04-12T12:31:23.902Z,14.43
2023-04-12T12:33:57.401Z,14.19
2023-04-12T12:36:29.653Z,13.76
2023-04-12T12:39:02.711Z,13.21
2023-04-12T12:41:31.172Z,12.55
2023-04-12T12:44:00.363Z,12.13
2023-04-12T12:46:44.526Z,12.08
2023-04-12T12:49:19.118Z,12.23
2023-04-12T12:51:50.410Z,12.26
2023-04-12T12:54:32.327Z,12.01
2023-04-12T12:57:07.186Z,11.69
2023-04-12T12:59:59.503Z,11.50
2023-04-12T13:02:28.155Z,11.32
2023-04-12T13:04:57.337Z,11.31
2023-04-12T13:07:43.545Z,11.33
2023-04-12T13:10:12.148Z,11.33
2023-04-12T13:12:40.378Z,11.46
2023-04-12T13:17:47.565Z,11.98
2023-04-12T13:20:35.929Z,12.27
2023-04-12T13:23:03.802Z,12.42
2023-04-12T13:25:37.525Z,12.43
2023-04-12T13:28:17.082Z,12.44
2023-04-12T13:30:48.899Z,12.45
2023-04-12T13:33:27.443Z,12.43
2023-04-12T13:35:58.187Z,12.22
2023-04-12T13:38:31.358Z,11.96
2023-04-12T13:41:01.884Z,11.79
2023-04-12T13:43:39.074Z,11.59
2023-04-12T13:46:07.628Z,11.48
2023-04-12T13:48:35.671Z,11.34
2023-04-12T13:51:17.023Z,11.17
2023-04-12T13:53:55.184Z,10.96
2023-04-12T13:56:23.369Z,10.72
2023-04-12T13:58:51.445Z,10.41
2023-04-12T14:01:22.686Z,10.18
2023-04-12T14:03:51.417Z,9.96
2023-04-12T14:06:30.296Z,9.69
2023-04-12T14:08:58.749Z,8.98
2023-04-12T14:11:27.233Z,8.52
2023-04-12T14:13:55.508Z,8.76
2023-04-12T14:16:23.711Z,9.22
2023-04-12T14:19:01.706Z,9.62
2023-04-12T14:21:50.119Z,9.86
2023-04-12T14:24:18.591Z,9.92
2023-04-12T14:26:47.310Z,9.80
2023-04-12T14:29:15.647Z,9.53
2023-04-12T14:31:43.881Z,9.23
2023-04-12T14:34:14.189Z,8.93
2023-04-12T14:36:42.270Z,8.71
2023-04-12T14:39:14.883Z,8.62
2023-04-12T14:41:57.294Z,8.72
2023-04-12T14:44:27.479Z,8.85
2023-04-12T14:46:55.779Z,8.98
2023-04-12T14:49:45.476Z,9.08
2023-04-12T14:52:13.536Z,9.17
2023-04-12T14:54:52.785Z,9.18
2023-04-12T14:57:22.103Z,9.10
2023-04-12T14:59:50.921Z,8.95
2023-04-12T15:02:21.038Z,8.86
2023-04-12T15:05:09.963Z,8.85
2023-04-12T15:07:38.608Z,9.01
2023-04-12T15:10:06.864Z,9.21
2023-04-12T15:12:35.557Z,9.36
2023-04-12T15:15:06.973Z,9.50
2023-04-12T15:17:45.657Z,9.58
2023-04-12T15:20:15.799Z,9.59
2023-04-12T15:22:44.122Z,9.56
2023-04-12T15:25:12.258Z,9.56
2023-04-12T15:27:40.874Z,9.58
2023-04-12T15:30:15.460Z,9.83
2023-04-12T15:32:47.589Z,10.13
2023-04-12T15:35:26.501Z,10.36
2023-04-12T15:37:56.485Z,10.44
2023-04-12T15:40:26.757Z,10.38
2023-04-12T15:43:04.000Z,10.24
2023-04-12T15:46:02.488Z,10.07
2023-04-12T15:48:35.872Z,9.92
2023-04-12T15:51:04.557Z,9.84
2023-04-12T15:54:02.987Z,9.78
2023-04-12T15:56:35.360Z,9.73
2023-04-12T15:59:13.969Z,9.79
2023-04-12T16:01:57.658Z,10.04
2023-04-12T16:04:49.489Z,10.39
2023-04-12T16:07:20.901Z,10.74
2023-04-12T16:09:58.192Z,10.92
2023-04-12T16:12:34.141Z,11.00
2023-04-12T16:15:04.488Z,10.99
2023-04-12T16:17:37.555Z,10.98
2023-04-12T16:20:06.964Z,11.01
2023-04-12T16:22:35.351Z,11.09
2023-04-12T16:25:08.999Z,11.14
2023-04-12T16:27:37.208Z,11.17
2023-04-12T16:30:10.550Z,11.20
2023-04-12T16:32:39.069Z,11.21
2023-04-12T16:35:24.643Z,11.25
2023-04-12T16:37:52.818Z,11.18
2023-04-12T16:40:24.786Z,11.15
2023-04-12T16:42:52.791Z,11.04
2023-04-12T16:45:51.122Z,10.90
2023-04-12T16:48:22.929Z,10.69
2023-04-12T16:50:59.765Z,10.59
2023-04-12T16:53:27.673Z,10.41
2023-04-12T16:56:05.338Z,10.33
2023-04-12T16:58:35.047Z,10.24
2023-04-12T17:01:06.982Z,10.17
2023-04-12T17:03:42.921Z,10.02
2023-04-12T17:06:13.829Z,9.99
2023-04-12T17:08:54.919Z,10.09
2023-04-12T17:11:26.757Z,10.06
2023-04-12T17:14:03.339Z,9.96
2023-04-12T17:16:31.694Z,9.85
2023-04-12T17:19:00.145Z,9.82
2023-04-12T17:22:01.172Z,9.87
2023-04-12T17:24:29.372Z,10.01
2023-04-12T17:27:15.130Z,10.12
2023-04-12T17:30:01.395Z,10.24
2023-04-12T17:32:29.575Z,10.41
2023-04-12T17:34:58.874Z,10.55
2023-04-12T17:37:28.059Z,10.67
2023-04-12T17:39:57.488Z,10.77
2023-04-12T17:42:26.464Z,10.81
2023-04-12T17:44:54.421Z,10.79
2023-04-12T17:47:45.737Z,10.65
2023-04-12T17:50:14.308Z,10.47
2023-04-12T17:52:42.583Z,10.32
2023-04-12T17:55:10.903Z,10.10
2023-04-12T17:57:41.828Z,9.84
2023-04-12T18:00:12.034Z,9.60
2023-04-12T18:02:40.831Z,9.38
2023-04-12T18:05:12.055Z,9.17
2023-04-12T18:08:09.036Z,9.01
2023-04-12T18:10:40.405Z,8.86
2023-04-12T18:13:16.385Z,8.77
2023-04-12T18:16:04.157Z,8.70
2023-04-12T18:18:45.972Z,8.64
2023-04-12T18:21:54.636Z,8.55
2023-04-12T18:25:03.121Z,8.47
2023-04-12T18:28:11.818Z,8.50
2023-04-12T18:31:20.174Z,8.60
2023-04-12T18:34:11.473Z,8.61
2023-04-12T18:36:59.812Z,8.61
2023-04-12T18:39:36.759Z,8.58
2023-04-12T18:42:28.009Z,8.49
2023-04-12T18:45:12.163Z,8.37
2023-04-12T18:47:47.354Z,8.25
2023-04-12T18:50:43.320Z,8.12
2023-04-12T18:53:11.696Z,7.99
2023-04-12T18:55:46.216Z,7.91
2023-04-12T18:58:37.073Z,7.83
2023-04-12T19:01:14.749Z,7.70
2023-04-12T19:03:45.198Z,7.60
2023-04-12T19:06:17.142Z,7.51
2023-04-12T19:08:55.501Z,7.43
2023-04-12T19:11:49.232Z,7.34
2023-04-12T19:14:57.583Z,7.26
2023-04-12T19:18:06.106Z,7.16
2023-04-12T19:21:14.587Z,7.09
2023-04-12T19:23:45.458Z,7.02
2023-04-12T19:26:13.706Z,6.96
2023-04-12T19:28:47.226Z,6.90
2023-04-12T19:31:24.152Z,6.83
2023-04-12T19:33:54.120Z,6.77
2023-04-12T19:36:24.499Z,6.73
2023-04-12T19:39:33.260Z,6.70
2023-04-12T19:42:03.807Z,6.63
2023-04-12T19:44:43.542Z,6.57
2023-04-12T19:47:44.959Z,6.53
2023-04-12T19:50:31.196Z,6.47
2023-04-12T19:53:02.060Z,6.42
2023-04-12T19:55:30.910Z,6.37
2023-04-12T19:57:59.546Z,6.32
2023-04-12T20:00:27.552Z,6.29
2023-04-12T20:02:55.941Z,6.29
2023-04-12T20:05:24.362Z,6.25
2023-04-12T20:07:56.272Z,6.25
2023-04-12T20:10:26.797Z,6.24
2023-04-12T20:12:54.974Z,6.24
2023-04-12T20:15:30.228Z,6.21
2023-04-12T20:17:59.241Z,6.18
2023-04-12T20:20:27.472Z,6.16
2023-04-12T20:22:58.914Z,6.13
2023-04-12T20:25:27.443Z,6.12
2023-04-12T20:27:56.039Z,6.10
2023-04-12T20:30:26.217Z,6.06
2023-04-12T20:32:54.641Z,6.01
2023-04-12T20:35:22.956Z,5.95
2023-04-12T20:37:54.402Z,5.91
2023-04-12T20:40:23.339Z,5.89
2023-04-12T20:42:51.549Z,5.86
2023-04-12T20:45:21.830Z,5.85
2023-04-12T20:47:53.391Z,5.84
2023-04-12T20:50:24.609Z,5.82
2023-04-12T20:52:53.271Z,5.81
2023-04-12T20:55:25.263Z,5.80
2023-04-12T20:57:55.957Z,5.79
2023-04-12T21:00:23.959Z,5.79
2023-04-12T21:02:52.154Z,5.78
2023-04-12T21:05:23.037Z,5.76
2023-04-12T21:07:51.360Z,5.73
2023-04-12T21:10:19.535Z,5.71
2023-04-12T21:12:53.677Z,5.68
2023-04-12T21:15:24.771Z,5.64
2023-04-12T21:18:13.118Z,5.62
2023-04-12T21:20:41.519Z,5.61
2023-04-12T21:23:09.436Z,5.62
2023-04-12T21:25:40.741Z,5.61
2023-04-12T21:28:08.671Z,5.61
2023-04-12T21:30:54.894Z,5.59
2023-04-12T21:33:26.401Z,5.59
2023-04-12T21:35:55.309Z,5.56
2023-04-12T21:38:25.733Z,5.53
2023-04-12T21:40:57.437Z,5.49
2023-04-12T21:43:26.235Z,5.45
2023-04-12T21:45:54.933Z,5.44
2023-04-12T21:48:26.146Z,5.43
2023-04-12T21:50:54.425Z,5.43
2023-04-12T21:53:28.690Z,5.41
2023-04-12T21:55:56.842Z,5.40
2023-04-12T21:58:24.770Z,5.39
2023-04-12T22:01:12.963Z,5.40
2023-04-12T22:03:47.090Z,5.39
2023-04-12T22:06:15.359Z,5.39
2023-04-12T22:08:44.313Z,5.41
2023-04-12T22:11:12.310Z,5.41
2023-04-12T22:13:47.856Z,5.42
2023-04-12T22:16:17.219Z,5.42
2023-04-12T22:18:48.085Z,5.42
2023-04-12T22:21:17.836Z,5.42
2023-04-12T22:23:45.953Z,5.45
2023-04-12T22:26:13.953Z,5.47
2023-04-12T22:28:43.586Z,5.49
2023-04-12T22:31:16.442Z,5.52
2023-04-12T22:33:55.081Z,5.54
2023-04-12T22:36:28.626Z,5.55
2023-04-12T22:38:57.703Z,5.56
2023-04-12T22:41:49.574Z,5.57
2023-04-12T22:44:18.724Z,5.58
2023-04-12T22:46:48.334Z,5.58
2023-04-12T22:49:17.480Z,5.60
2023-04-12T22:51:45.599Z,5.62
2023-04-12T22:54:13.617Z,5.64
2023-04-12T22:56:47.440Z,5.66
2023-04-12T22:59:17.937Z,5.66
2023-04-12T23:01:46.768Z,5.69
2023-04-12T23:04:16.003Z,5.70
2023-04-12T23:06:45.657Z,5.69
2023-04-12T23:09:13.970Z,5.70
2023-04-12T23:11:43.090Z,5.71
2023-04-12T23:14:11.086Z,5.72
2023-04-12T23:16:44.547Z,5.73
2023-04-12T23:19:12.868Z,5.74
2023-04-12T23:21:41.544Z,5.76
2023-04-12T23:24:12.263Z,5.80
2023-04-12T23:26:49.220Z,5.85
2023-04-12T23:29:17.448Z,5.89
2023-04-12T23:31:45.811Z,5.94
2023-04-12T23:34:13.881Z,5.97
2023-04-12T23:36:41.740Z,6.00
2023-04-12T23:39:09.790Z,6.01
2023-04-12T23:41:38.521Z,6.04
2023-04-12T23:44:08.425Z,6.06
2023-04-12T23:46:36.625Z,6.07
2023-04-12T23:49:04.847Z,6.07
2023-04-12T23:51:33.447Z,6.07
2023-04-12T23:54:01.977Z,6.09
2023-04-12T23:56:29.916Z,6.10
2023-04-12T23:59:01.074Z,6.11
